createdAt,value
2018-12-16T00:00:47.432Z,37.60
2018-12-16T00:03:17.212Z,36.27
2018-12-16T00:05:47.352Z,39.05
2018-12-16T00:08:17.620Z,34.65
2018-12-16T00:10:47.351Z,38.50
2018-12-16T00:13:17.135Z,34.93
2018-12-16T00:15:47.446Z,36.37
2018-12-16T00:18:17.191Z,36.40
2018-12-16T00:20:47.324Z,39.95
2018-12-16T00:23:17.336Z,35.80
2018-12-16T00:25:47.443Z,38.47
2018-12-16T00:28:18.111Z,31.83
2018-12-16T00:30:49.649Z,39.58
2018-12-16T00:33:19.388Z,34.13
2018-12-16T00:35:49.269Z,34.50
2018-12-16T00:38:20.157Z,37.47
2018-12-16T00:40:50.046Z,34.03
2018-12-16T00:43:20.376Z,34.88
2018-12-16T00:45:50.570Z,34.13
2018-12-16T00:48:21.603Z,36.10
2018-12-16T00:50:51.348Z,36.03
2018-12-16T00:53:21.175Z,36.00
2018-12-16T00:55:51.350Z,37.40
2018-12-16T00:58:21.520Z,39.87
2018-12-16T01:00:51.343Z,38.00
2018-12-16T01:03:21.328Z,38.10
2018-12-16T01:05:51.207Z,38.50
2018-12-16T01:08:21.251Z,38.90
2018-12-16T01:10:51.324Z,38.40
2018-12-16T01:13:21.124Z,38.77
2018-12-16T01:15:52.057Z,38.20
2018-12-16T01:18:22.764Z,41.43
2018-12-16T01:20:52.706Z,40.97
2018-12-16T01:23:22.462Z,41.20
2018-12-16T01:25:52.325Z,41.97
2018-12-16T01:28:22.765Z,38.80
2018-12-16T01:30:52.522Z,42.10
2018-12-16T01:33:22.444Z,41.20
2018-12-16T01:35:52.526Z,37.37
2018-12-16T01:38:23.884Z,40.90
2018-12-16T01:40:53.732Z,38.67
2018-12-16T01:43:23.467Z,36.60
2018-12-16T01:45:53.226Z,39.08
2018-12-16T01:48:23.429Z,41.50
2018-12-16T01:50:53.729Z,42.73
2018-12-16T01:53:23.540Z,39.57
2018-12-16T01:55:53.722Z,39.17
2018-12-16T01:58:23.468Z,36.97
2018-12-16T02:00:53.460Z,36.83
2018-12-16T02:03:23.828Z,37.33
2018-12-16T02:05:53.582Z,40.17
2018-12-16T02:08:23.426Z,42.03
2018-12-16T02:10:54.323Z,38.23
2018-12-16T02:13:24.318Z,39.67
2018-12-16T02:15:54.413Z,40.50
2018-12-16T02:18:24.306Z,43.20
2018-12-16T02:20:54.544Z,44.13
2018-12-16T02:23:25.034Z,43.07
2018-12-16T02:25:55.559Z,43.95
2018-12-16T02:28:25.744Z,39.70
2018-12-16T02:30:55.520Z,43.13
2018-12-16T02:33:26.419Z,46.53
2018-12-16T02:35:56.733Z,45.57
2018-12-16T02:38:26.546Z,46.13
2018-12-16T02:40:56.489Z,50.60
2018-12-16T02:43:27.271Z,43.60
2018-12-16T02:45:59.169Z,49.90
2018-12-16T02:48:29.422Z,46.97
2018-12-16T02:50:59.200Z,51.50
2018-12-16T02:53:29.336Z,39.73
2018-12-16T02:55:59.456Z,42.55
2018-12-16T02:58:29.283Z,43.57
2018-12-16T03:12:07.845Z,42.43
2018-12-16T03:14:38.176Z,35.80
2018-12-16T03:17:08.172Z,28.67
2018-12-16T03:19:38.284Z,29.33
2018-12-16T03:22:08.593Z,30.00
2018-12-16T03:24:39.652Z,32.10
2018-12-16T03:27:09.595Z,29.60
2018-12-16T03:29:39.452Z,31.37
2018-12-16T03:32:09.578Z,30.70
2018-12-16T03:34:39.438Z,30.70
2018-12-16T03:37:09.482Z,33.03
2018-12-16T03:39:39.500Z,28.87
2018-12-16T03:42:09.269Z,31.37
2018-12-16T03:44:39.297Z,31.57
2018-12-16T03:47:09.352Z,31.90
2018-12-16T03:49:39.138Z,31.77
2018-12-16T03:52:09.312Z,31.55
2018-12-16T03:54:39.707Z,33.47
2018-12-16T03:57:09.547Z,32.00
2018-12-16T03:59:39.347Z,33.63
2018-12-16T04:02:09.418Z,33.07
2018-12-16T04:04:39.317Z,33.43
2018-12-16T04:07:09.136Z,32.13
2018-12-16T04:09:39.330Z,31.42
2018-12-16T04:14:55.969Z,30.63
2018-12-16T04:17:25.972Z,30.02
2018-12-16T04:19:56.090Z,30.80
2018-12-16T04:22:26.316Z,31.20
2018-12-16T04:24:56.206Z,33.37
2018-12-16T04:27:26.318Z,35.50
2018-12-16T04:29:56.545Z,32.70
2018-12-16T04:32:26.324Z,43.87
2018-12-16T04:34:56.037Z,41.97
2018-12-16T04:37:26.399Z,41.88
2018-12-16T04:39:57.481Z,39.10
2018-12-16T04:42:27.355Z,35.43
2018-12-16T04:44:57.176Z,31.57
2018-12-16T04:47:27.713Z,38.02
2018-12-16T04:49:57.618Z,38.60
2018-12-16T04:52:27.435Z,42.77
2018-12-16T04:54:57.559Z,41.57
2018-12-16T04:57:27.507Z,45.03
2018-12-16T04:59:57.303Z,43.63
2018-12-16T05:02:27.164Z,41.90
2018-12-16T05:04:57.353Z,42.27
2018-12-16T05:07:27.359Z,42.53
2018-12-16T05:10:06.986Z,44.33
2018-12-16T05:12:37.487Z,44.35
2018-12-16T05:15:07.564Z,41.00
2018-12-16T05:17:37.756Z,42.53
2018-12-16T05:20:07.684Z,45.70
2018-12-16T05:22:37.693Z,72.40
2018-12-16T05:25:07.735Z,117.90
2018-12-16T05:27:37.822Z,120.00
2018-12-16T05:30:08.699Z,119.10
2018-12-16T05:32:38.558Z,100.00
2018-12-16T05:35:08.921Z,97.97
2018-12-16T05:37:39.167Z,81.92
2018-12-16T05:40:09.288Z,64.50
2018-12-16T05:42:39.723Z,48.60
2018-12-16T05:45:10.102Z,42.23
2018-12-16T05:47:40.339Z,43.50
2018-12-16T05:50:11.265Z,41.47
2018-12-16T05:52:41.565Z,39.97
2018-12-16T05:55:11.334Z,41.37
2018-12-16T05:57:41.157Z,45.07
2018-12-16T06:00:12.740Z,73.95
2018-12-16T06:02:42.595Z,101.13
2018-12-16T06:05:12.847Z,63.60
2018-12-16T06:07:42.644Z,59.57
2018-12-16T06:10:12.525Z,57.73
2018-12-16T06:12:42.401Z,48.10
2018-12-16T06:15:12.443Z,45.03
2018-12-16T06:17:42.427Z,44.83
2018-12-16T06:20:13.177Z,43.03
2018-12-16T06:22:43.552Z,44.57
2018-12-16T06:25:13.393Z,44.77
2018-12-16T06:27:43.224Z,44.73
2018-12-16T06:30:14.157Z,40.17
2018-12-16T06:32:44.828Z,40.12
2018-12-16T06:35:14.857Z,38.78
2018-12-16T06:37:44.603Z,40.47
2018-12-16T06:40:14.624Z,35.43
2018-12-16T06:42:44.343Z,36.67
2018-12-16T06:45:14.320Z,39.77
2018-12-16T06:47:49.095Z,39.27
2018-12-16T06:50:19.071Z,39.50
2018-12-16T06:52:49.470Z,39.50
2018-12-16T06:55:19.416Z,44.27
2018-12-16T06:57:49.258Z,40.87
2018-12-16T07:00:19.532Z,37.13
2018-12-16T07:02:53.289Z,46.57
2018-12-16T07:05:24.135Z,53.23
2018-12-16T07:07:54.230Z,67.30
2018-12-16T07:10:24.459Z,70.85
2018-12-16T07:12:54.766Z,70.97
2018-12-16T07:15:24.724Z,62.63
2018-12-16T07:17:54.775Z,66.57
2018-12-16T07:20:24.571Z,64.13
2018-12-16T07:22:54.406Z,65.83
2018-12-16T07:25:24.430Z,63.30
2018-12-16T07:27:54.862Z,77.90
2018-12-16T07:30:25.572Z,80.80
2018-12-16T07:32:56.306Z,84.53
2018-12-16T07:35:26.527Z,86.90
2018-12-16T07:37:56.494Z,80.27
2018-12-16T07:40:26.432Z,84.53
2018-12-16T07:42:56.456Z,83.23
2018-12-16T07:45:26.429Z,91.03
2018-12-16T07:47:57.342Z,96.13
2018-12-16T07:50:27.670Z,98.53
2018-12-16T07:52:57.903Z,108.20
2018-12-16T07:55:28.372Z,108.60
2018-12-16T07:57:59.252Z,116.90
2018-12-16T08:00:29.452Z,127.00
2018-12-16T08:03:01.772Z,115.13
2018-12-16T08:05:33.266Z,109.30
2018-12-16T08:08:03.235Z,121.53
2018-12-16T08:10:33.402Z,112.25
2018-12-16T08:13:03.709Z,121.73
2018-12-16T08:15:33.673Z,167.03
2018-12-16T08:18:03.565Z,147.57
2018-12-16T08:20:33.621Z,105.87
2018-12-16T08:23:03.606Z,88.60
2018-12-16T08:25:33.613Z,82.57
2018-12-16T08:28:03.477Z,85.13
2018-12-16T08:30:33.829Z,85.13
2018-12-16T08:33:04.289Z,80.75
2018-12-16T08:35:34.814Z,85.33
2018-12-16T08:38:05.139Z,79.30
2018-12-16T08:40:35.824Z,66.37
2018-12-16T08:43:05.919Z,55.83
2018-12-16T08:45:36.459Z,54.08
2018-12-16T08:48:06.892Z,56.63
2018-12-16T08:50:37.293Z,60.38
2018-12-16T08:53:10.192Z,65.43
2018-12-16T08:55:41.898Z,67.33
2018-12-16T08:58:12.414Z,69.87
2018-12-16T09:00:45.474Z,68.47
2018-12-16T09:03:15.702Z,65.60
2018-12-16T09:05:45.890Z,71.50
2018-12-16T09:08:16.183Z,95.42
2018-12-16T09:10:46.695Z,85.13
2018-12-16T09:13:16.792Z,103.67
2018-12-16T09:15:49.355Z,110.83
2018-12-16T09:18:19.435Z,110.60
2018-12-16T09:20:49.725Z,88.43
2018-12-16T09:23:19.492Z,66.93
2018-12-16T09:25:49.640Z,68.97
2018-12-16T09:28:19.889Z,65.43
2018-12-16T09:30:50.197Z,73.33
2018-12-16T09:33:20.225Z,68.37
2018-12-16T09:35:50.374Z,63.85
2018-12-16T09:38:20.669Z,56.43
2018-12-16T09:40:50.519Z,52.67
2018-12-16T09:43:20.296Z,55.37
2018-12-16T09:45:50.759Z,62.27
2018-12-16T09:48:21.004Z,81.20
2018-12-16T09:50:51.100Z,103.70
2018-12-16T09:53:21.452Z,94.42
2018-12-16T09:56:11.886Z,66.07
2018-12-16T09:58:42.174Z,61.60
2018-12-16T10:01:12.115Z,53.00
2018-12-16T10:03:42.356Z,52.75
2018-12-16T10:06:12.178Z,59.30
2018-12-16T10:08:42.311Z,84.73
2018-12-16T10:11:12.507Z,104.57
2018-12-16T10:13:42.528Z,89.47
2018-12-16T10:16:12.687Z,153.33
2018-12-16T10:18:42.871Z,96.33
2018-12-16T10:21:13.233Z,62.62
2018-12-16T10:23:43.668Z,59.00
2018-12-16T10:26:13.718Z,70.97
2018-12-16T10:28:43.615Z,67.77
2018-12-16T10:31:14.644Z,67.10
2018-12-16T10:33:44.631Z,74.47
2018-12-16T10:36:14.488Z,73.40
2018-12-16T10:38:44.554Z,53.27
2018-12-16T10:41:14.530Z,56.43
2018-12-16T10:43:44.475Z,48.73
2018-12-16T10:46:14.478Z,44.40
2018-12-16T10:48:44.523Z,48.87
2018-12-16T10:51:14.407Z,47.57
2018-12-16T10:53:44.473Z,51.37
2018-12-16T10:56:14.409Z,56.10
2018-12-16T10:58:44.789Z,52.50
2018-12-16T11:01:19.565Z,51.53
2018-12-16T11:03:49.581Z,43.63
2018-12-16T11:06:19.583Z,74.43
2018-12-16T11:08:51.257Z,66.60
2018-12-16T11:11:21.195Z,74.30
2018-12-16T11:13:51.289Z,68.53
2018-12-16T11:16:21.793Z,63.50
2018-12-16T11:18:51.841Z,57.83
2018-12-16T11:21:21.824Z,47.30
2018-12-16T11:23:53.979Z,50.63
2018-12-16T11:26:24.731Z,45.27
2018-12-16T11:28:54.908Z,48.97
2018-12-16T11:31:25.211Z,45.12
2018-12-16T11:33:55.522Z,48.43
2018-12-16T11:36:25.327Z,51.83
2018-12-16T11:38:55.451Z,44.83
2018-12-16T11:41:25.357Z,49.70
2018-12-16T11:43:59.746Z,52.90
2018-12-16T11:46:35.266Z,50.57
2018-12-16T11:49:08.391Z,54.70
2018-12-16T11:51:40.068Z,48.30
2018-12-16T11:54:10.265Z,51.03
2018-12-16T11:56:40.404Z,50.97
2018-12-16T11:59:10.518Z,47.33
2018-12-16T12:01:40.754Z,75.67
2018-12-16T12:04:10.776Z,81.83
2018-12-16T12:06:40.527Z,58.13
2018-12-16T12:09:10.495Z,42.47
2018-12-16T12:11:40.578Z,41.77
2018-12-16T12:14:10.438Z,45.93
2018-12-16T12:16:40.548Z,43.95
2018-12-16T12:19:10.432Z,43.67
2018-12-16T12:21:40.499Z,48.37
2018-12-16T12:24:11.815Z,42.65
2018-12-16T12:26:41.601Z,40.57
2018-12-16T12:29:11.561Z,41.37
2018-12-16T12:31:41.508Z,41.47
2018-12-16T12:34:11.503Z,48.80
2018-12-16T12:36:41.370Z,47.70
2018-12-16T12:39:11.740Z,159.57
2018-12-16T12:41:41.536Z,99.13
2018-12-16T12:44:11.412Z,70.70
2018-12-16T12:46:41.327Z,73.50
2018-12-16T12:49:11.756Z,59.17
2018-12-16T12:51:41.601Z,48.97
2018-12-16T12:54:11.992Z,45.80
2018-12-16T12:56:43.127Z,50.70
2018-12-16T12:59:13.306Z,51.03
2018-12-16T13:01:43.344Z,44.50
2018-12-16T13:04:14.031Z,50.37
2018-12-16T13:06:44.218Z,45.20
2018-12-16T13:09:14.104Z,47.60
2018-12-16T13:11:49.803Z,49.53
2018-12-16T13:14:19.962Z,50.97
2018-12-16T13:16:50.210Z,47.08
2018-12-16T13:19:20.467Z,62.67
2018-12-16T13:21:50.295Z,63.87
2018-12-16T13:24:20.643Z,55.57
2018-12-16T13:26:51.129Z,47.60
2018-12-16T13:29:21.343Z,59.50
2018-12-16T13:31:51.424Z,36.70
2018-12-16T13:34:21.275Z,44.37
2018-12-16T13:36:52.107Z,48.10
2018-12-16T13:39:22.241Z,58.08
2018-12-16T13:41:52.737Z,100.27
2018-12-16T13:44:22.521Z,114.50
2018-12-16T13:46:52.650Z,74.30
2018-12-16T13:49:23.080Z,61.33
2018-12-16T13:51:53.837Z,76.87
2018-12-16T13:54:25.239Z,67.40
2018-12-16T13:56:55.181Z,59.97
2018-12-16T13:59:25.252Z,51.93
2018-12-16T14:01:55.349Z,48.60
2018-12-16T14:04:25.991Z,44.83
2018-12-16T14:06:56.204Z,48.00
2018-12-16T14:09:27.480Z,55.50
2018-12-16T14:11:58.164Z,55.47
2018-12-16T14:14:39.720Z,50.27
2018-12-16T14:17:09.626Z,50.40
2018-12-16T14:19:39.493Z,60.27
2018-12-16T14:22:09.645Z,60.77
2018-12-16T14:24:39.638Z,80.77
2018-12-16T14:29:55.720Z,74.97
2018-12-16T14:32:25.750Z,68.40
2018-12-16T14:34:58.386Z,62.23
2018-12-16T14:37:31.618Z,63.33
2018-12-16T14:40:04.275Z,64.53
2018-12-16T14:42:34.706Z,57.43
2018-12-16T14:45:05.263Z,67.73
2018-12-16T14:47:35.307Z,68.33
2018-12-16T14:50:06.362Z,69.73
2018-12-16T14:52:36.774Z,78.07
2018-12-16T14:55:08.213Z,85.15
2018-12-16T14:57:38.481Z,74.50
2018-12-16T15:00:11.459Z,75.27
2018-12-16T15:02:41.540Z,79.00
2018-12-16T15:05:12.819Z,80.20
2018-12-16T15:07:43.405Z,69.87
2018-12-16T15:10:13.580Z,53.77
2018-12-16T15:12:43.495Z,50.13
2018-12-16T15:15:14.131Z,79.13
2018-12-16T15:17:44.536Z,193.20
2018-12-16T15:20:14.383Z,241.70
2018-12-16T15:22:44.311Z,247.30
2018-12-16T15:25:14.163Z,213.93
2018-12-16T15:27:44.171Z,149.10
2018-12-16T15:30:14.297Z,186.13
2018-12-16T15:32:44.435Z,224.37
2018-12-16T15:35:14.627Z,146.53
2018-12-16T15:37:44.536Z,133.93
2018-12-16T15:40:15.545Z,70.07
2018-12-16T15:42:45.488Z,60.60
2018-12-16T15:45:15.672Z,44.87
2018-12-16T15:47:45.569Z,39.13
2018-12-16T15:50:15.605Z,34.10
2018-12-16T15:52:45.523Z,31.67
2018-12-16T15:55:15.708Z,32.13
2018-12-16T15:57:51.712Z,36.63
2018-12-16T16:00:24.522Z,65.93
2018-12-16T16:02:55.492Z,103.83
2018-12-16T16:05:25.379Z,106.27
2018-12-16T16:07:55.427Z,76.63
2018-12-16T16:10:25.420Z,71.47
2018-12-16T16:12:55.813Z,61.63
2018-12-16T16:15:26.515Z,55.10
2018-12-16T16:17:56.402Z,61.60
2018-12-16T16:20:26.638Z,62.30
2018-12-16T16:22:56.495Z,62.20
2018-12-16T16:25:26.544Z,66.00
2018-12-16T16:27:56.681Z,62.60
2018-12-16T16:30:27.071Z,63.47
2018-12-16T16:32:57.172Z,59.20
2018-12-16T16:35:28.784Z,49.27
2018-12-16T16:38:00.809Z,46.97
2018-12-16T16:40:32.584Z,46.07
2018-12-16T16:43:02.556Z,44.67
2018-12-16T16:45:32.754Z,48.57
2018-12-16T16:48:02.635Z,52.10
2018-12-16T16:50:36.684Z,55.47
2018-12-16T16:53:06.517Z,53.83
2018-12-16T16:55:36.389Z,47.33
2018-12-16T16:58:06.391Z,46.37
2018-12-16T17:00:36.422Z,43.83
2018-12-16T17:03:06.404Z,51.57
2018-12-16T17:05:36.327Z,84.07
2018-12-16T17:08:06.142Z,87.27
2018-12-16T17:10:36.384Z,104.73
2018-12-16T17:13:06.405Z,108.23
2018-12-16T17:15:36.292Z,100.37
2018-12-16T17:18:06.459Z,139.10
2018-12-16T17:20:36.724Z,198.47
2018-12-16T17:23:06.676Z,171.33
2018-12-16T17:25:36.595Z,126.27
2018-12-16T17:28:06.872Z,119.20
2018-12-16T17:30:37.142Z,112.57
2018-12-16T17:33:07.239Z,107.07
2018-12-16T17:35:37.440Z,107.53
2018-12-16T17:38:07.298Z,98.60
2018-12-16T17:40:37.106Z,93.00
2018-12-16T17:43:07.252Z,99.27
2018-12-16T17:45:37.218Z,95.13
2018-12-16T17:48:07.560Z,91.13
2018-12-16T17:50:37.583Z,88.90
2018-12-16T17:53:07.626Z,99.80
2018-12-16T17:55:37.419Z,112.37
2018-12-16T17:58:07.256Z,113.75
2018-12-16T18:00:37.488Z,106.70
2018-12-16T18:03:07.324Z,111.93
2018-12-16T18:05:38.020Z,149.53
2018-12-16T18:08:09.363Z,208.30
2018-12-16T18:10:39.503Z,272.27
2018-12-16T18:13:12.432Z,303.57
2018-12-16T18:15:42.470Z,288.67
2018-12-16T18:18:14.311Z,286.07
2018-12-16T18:20:44.406Z,219.43
2018-12-16T18:23:14.417Z,135.63
2018-12-16T18:25:44.578Z,144.77
2018-12-16T18:28:16.357Z,110.63
2018-12-16T18:30:46.418Z,98.33
2018-12-16T18:33:16.631Z,100.03
2018-12-16T18:35:47.215Z,83.67
2018-12-16T18:38:18.120Z,88.78
2018-12-16T18:40:48.845Z,94.13
2018-12-16T18:43:19.567Z,95.30
2018-12-16T18:45:50.865Z,105.12
2018-12-16T18:48:20.994Z,83.97
2018-12-16T18:50:54.460Z,65.77
2018-12-16T18:53:24.708Z,62.57
2018-12-16T18:55:54.768Z,66.27
2018-12-16T18:58:25.195Z,69.60
2018-12-16T19:00:55.625Z,70.78
2018-12-16T19:03:25.840Z,66.77
2018-12-16T19:05:55.798Z,76.00
2018-12-16T19:08:25.974Z,79.97
2018-12-16T19:10:56.055Z,87.08
2018-12-16T19:13:26.235Z,83.55
2018-12-16T19:15:56.304Z,82.60
2018-12-16T19:18:27.927Z,81.37
2018-12-16T19:20:58.422Z,90.67
2018-12-16T19:23:28.337Z,85.80
2018-12-16T19:25:58.211Z,79.60
2018-12-16T19:28:28.313Z,89.27
2018-12-16T19:30:58.254Z,87.73
2018-12-16T19:33:28.401Z,92.02
2018-12-16T19:35:58.242Z,87.33
2018-12-16T19:38:28.632Z,85.57
2018-12-16T19:40:58.512Z,93.93
2018-12-16T19:43:28.460Z,542.77
2018-12-16T19:45:58.632Z,250.53
2018-12-16T19:48:28.928Z,100.33
2018-12-16T19:50:59.443Z,98.47
2018-12-16T19:53:30.085Z,97.00
2018-12-16T19:56:00.204Z,107.63
2018-12-16T19:58:33.199Z,101.77
2018-12-16T20:01:03.874Z,107.60
2018-12-16T20:03:34.189Z,95.87
2018-12-16T20:06:09.629Z,97.67
2018-12-16T20:08:39.603Z,105.63
2018-12-16T20:11:10.208Z,120.42
2018-12-16T20:13:40.400Z,102.97
2018-12-16T20:16:10.479Z,108.60
2018-12-16T20:18:40.646Z,92.33
2018-12-16T20:21:10.470Z,85.87
2018-12-16T20:23:40.281Z,77.33
2018-12-16T20:26:10.491Z,89.37
2018-12-16T20:28:40.499Z,117.83
2018-12-16T20:31:10.471Z,125.30
2018-12-16T20:33:40.623Z,125.13
2018-12-16T20:36:10.464Z,118.10
2018-12-16T20:38:40.317Z,139.43
2018-12-16T20:41:10.469Z,159.70
2018-12-16T20:43:40.872Z,150.83
2018-12-16T20:46:10.947Z,148.68
2018-12-16T20:48:41.185Z,139.42
2018-12-16T20:51:11.787Z,126.73
2018-12-16T20:53:41.658Z,143.10
2018-12-16T20:56:12.180Z,144.53
2018-12-16T20:58:42.527Z,132.03
2018-12-16T21:01:21.489Z,102.63
2018-12-16T21:03:51.965Z,81.00
2018-12-16T21:06:22.281Z,61.08
2018-12-16T21:08:52.205Z,62.33
2018-12-16T21:11:27.855Z,61.77
2018-12-16T21:14:02.688Z,62.30
2018-12-16T21:16:37.361Z,52.73
2018-12-16T21:19:07.556Z,52.13
2018-12-16T21:21:38.052Z,56.53
2018-12-16T21:24:08.673Z,50.83
2018-12-16T21:26:39.154Z,56.70
2018-12-16T21:29:09.299Z,49.80
2018-12-16T21:31:42.483Z,54.87
2018-12-16T21:34:12.430Z,55.30
2018-12-16T21:36:43.320Z,50.47
2018-12-16T21:39:14.069Z,51.17
2018-12-16T21:41:44.834Z,55.33
2018-12-16T21:44:14.918Z,54.77
2018-12-16T21:46:45.673Z,51.30
2018-12-16T21:49:16.127Z,57.77
2018-12-16T21:51:46.584Z,46.83
2018-12-16T21:54:16.916Z,54.00
2018-12-16T21:56:46.958Z,48.58
2018-12-16T21:59:17.824Z,49.33
2018-12-16T22:01:48.444Z,50.55
2018-12-16T22:04:20.832Z,57.40
2018-12-16T22:06:51.274Z,68.23
2018-12-16T22:09:22.593Z,74.15
2018-12-16T22:11:52.517Z,98.87
2018-12-16T22:14:23.085Z,110.33
2018-12-16T22:16:53.419Z,105.45
2018-12-16T22:19:23.957Z,99.17
2018-12-16T22:21:54.286Z,95.47
2018-12-16T22:24:24.186Z,100.97
2018-12-16T22:26:54.568Z,91.80
2018-12-16T22:29:24.850Z,100.47
2018-12-16T22:31:55.070Z,97.90
2018-12-16T22:34:25.306Z,94.67
2018-12-16T22:36:55.636Z,92.33
2018-12-16T22:39:25.940Z,83.33
2018-12-16T22:41:56.558Z,81.85
2018-12-16T22:44:26.345Z,85.83
2018-12-16T22:46:56.587Z,92.87
2018-12-16T22:49:26.387Z,98.93
2018-12-16T22:51:56.480Z,110.57
2018-12-16T22:54:26.781Z,120.23
2018-12-16T22:56:56.619Z,105.33
2018-12-16T22:59:26.643Z,87.60
2018-12-16T23:01:56.415Z,81.53
2018-12-16T23:04:26.546Z,92.00
2018-12-16T23:06:56.631Z,93.53
2018-12-16T23:09:26.452Z,107.10
2018-12-16T23:11:57.695Z,135.78
2018-12-16T23:14:27.532Z,173.80
2018-12-16T23:16:57.368Z,159.33
2018-12-16T23:19:27.221Z,124.67
2018-12-16T23:21:57.130Z,106.57
2018-12-16T23:24:28.094Z,100.70
2018-12-16T23:26:58.219Z,95.53
2018-12-16T23:31:59.171Z,108.93
2018-12-16T23:34:29.415Z,96.93
2018-12-16T23:36:59.756Z,100.57
2018-12-16T23:39:29.499Z,104.73
2018-12-16T23:41:59.479Z,116.80
2018-12-16T23:44:29.686Z,125.57
2018-12-16T23:46:59.674Z,115.07
2018-12-16T23:49:29.755Z,100.10
2018-12-16T23:51:59.524Z,109.77
2018-12-16T23:54:29.380Z,106.50
2018-12-16T23:56:59.302Z,106.40
2018-12-16T23:59:29.646Z,99.77
